Time;durP1;ratioP1;P1;durP2;ratioP2;P2;SDS_P1;SDS_P2;PMS_P1;PMS_P2;Temp;Humidity;BMP_temperature;BMP_pressure;BME280_temperature;BME280_humidity;BME280_pressure;Samples;Min_cycle;Max_cycle;Signal;HPM_P1;HPM_P2
2022/08/11 00:00:11;;;;;;;3.30;3.00;;;17.20;99.90;;;;;;5056111;28;20047;-79
2022/08/11 00:02:40;;;;;;;3.73;3.30;;;17.10;99.90;;;;;;5056366;28;20036;-79
2022/08/11 00:05:15;;;;;;;3.60;3.25;;;17.10;99.90;;;;;;5052577;28;20309;-78
2022/08/11 00:07:46;;;;;;;3.78;3.47;;;17.10;99.90;;;;;;5052424;28;20041;-79
2022/08/11 00:10:22;;;;;;;3.83;3.30;;;17.00;99.90;;;;;;5050691;28;20033;-79
2022/08/11 00:12:56;;;;;;;4.10;3.42;;;17.00;99.90;;;;;;5058288;28;20041;-79
2022/08/11 00:15:26;;;;;;;6.50;3.53;;;17.00;99.90;;;;;;5051603;28;20037;-79
2022/08/11 00:18:00;;;;;;;5.00;3.28;;;17.00;99.90;;;;;;5050007;28;20055;-80
2022/08/11 00:20:34;;;;;;;4.60;3.20;;;17.00;99.90;;;;;;5053581;28;20565;-79
2022/08/11 00:23:15;;;;;;;5.40;3.47;;;17.00;99.90;;;;;;5057227;28;20048;-78
2022/08/11 00:25:44;;;;;;;4.15;3.55;;;16.90;99.90;;;;;;5055199;28;20040;-79
2022/08/11 00:28:33;;;;;;;6.30;3.60;;;16.90;99.90;;;;;;5054089;28;20610;-78
2022/08/11 00:31:06;;;;;;;5.30;3.92;;;16.90;99.90;;;;;;5052186;28;20040;-79
2022/08/11 00:33:38;;;;;;;6.25;3.33;;;16.90;99.90;;;;;;5057512;28;20041;-79
2022/08/11 00:36:06;;;;;;;3.45;3.15;;;16.90;99.90;;;;;;5050728;28;20051;-78
2022/08/11 00:38:35;;;;;;;5.20;3.38;;;16.90;99.90;;;;;;5052215;28;20051;-79
2022/08/11 00:41:35;;;;;;;9.05;3.80;;;16.90;99.90;;;;;;5050758;28;20062;-79
2022/08/11 00:44:38;;;;;;;4.00;3.60;;;16.80;99.90;;;;;;5051893;28;20827;-78
2022/08/11 00:47:54;;;;;;;5.20;3.30;;;16.80;99.90;;;;;;5052823;28;20067;-79
2022/08/11 00:50:41;;;;;;;5.28;3.92;;;16.80;99.90;;;;;;5020604;28;20071;-79
2022/08/11 00:53:25;;;;;;;5.22;4.03;;;16.70;99.90;;;;;;5053992;28;20116;-79
2022/08/11 00:56:12;;;;;;;7.05;3.97;;;16.70;99.90;;;;;;5054164;28;20037;-78
2022/08/11 00:59:13;;;;;;;4.63;4.15;;;16.70;99.90;;;;;;5051920;28;20041;-78
2022/08/11 01:02:07;;;;;;;4.55;3.85;;;16.70;99.90;;;;;;5049390;28;20093;-78
2022/08/11 01:05:04;;;;;;;4.65;3.97;;;16.70;99.90;;;;;;5055790;28;20495;-79
2022/08/11 01:08:08;;;;;;;4.68;4.10;;;16.60;99.90;;;;;;5052659;28;20049;-78
2022/08/11 01:10:55;;;;;;;5.40;4.85;;;16.70;99.90;;;;;;5057807;28;20769;-79
2022/08/11 01:13:50;;;;;;;8.07;4.40;;;16.70;99.90;;;;;;5054908;28;20044;-79
2022/08/11 01:16:49;;;;;;;6.00;4.47;;;16.60;99.90;;;;;;5057036;28;20029;-78
2022/08/11 01:19:50;;;;;;;5.90;4.35;;;16.60;99.90;;;;;;5059612;28;20059;-79
2022/08/11 01:22:24;;;;;;;4.78;4.25;;;16.60;99.90;;;;;;5059965;28;20047;-78
2022/08/11 01:25:15;;;;;;;5.28;4.53;;;16.60;99.90;;;;;;5050145;28;20036;-79
2022/08/11 01:28:29;;;;;;;4.70;4.28;;;16.60;99.90;;;;;;5055735;28;20170;-78
2022/08/11 01:31:22;;;;;;;4.75;4.35;;;16.60;99.90;;;;;;5057428;28;20080;-78
2022/08/11 01:34:12;;;;;;;9.48;4.65;;;16.60;99.90;;;;;;5054374;28;20096;-79
2022/08/11 01:36:57;;;;;;;7.07;4.82;;;16.50;99.90;;;;;;5058883;28;20072;-79
2022/08/11 01:40:00;;;;;;;7.85;5.55;;;16.50;99.90;;;;;;5054544;28;20045;-79
2022/08/11 01:46:04;;;;;;;5.47;4.80;;;16.50;99.90;;;;;;5060922;28;20110;-79
2022/08/11 01:48:41;;;;;;;5.45;4.95;;;16.40;99.90;;;;;;5041325;28;20124;-79
2022/08/11 01:51:18;;;;;;;10.45;5.13;;;16.40;99.90;;;;;;5058800;28;20068;-79
2022/08/11 01:54:17;;;;;;;6.93;5.28;;;16.40;99.90;;;;;;5056163;28;20392;-79
2022/08/11 01:57:15;;;;;;;6.35;5.45;;;16.40;99.90;;;;;;5053831;28;20075;-79
2022/08/11 01:59:48;;;;;;;5.97;5.40;;;16.40;99.90;;;;;;5058287;28;20041;-80
2022/08/11 02:02:46;;;;;;;6.53;5.88;;;16.30;99.90;;;;;;5055787;28;20045;-78
2022/08/11 02:05:33;;;;;;;5.85;5.35;;;16.30;99.90;;;;;;5053229;28;20059;-79
2022/08/11 02:08:22;;;;;;;5.75;5.25;;;16.30;99.90;;;;;;5053551;28;20072;-79
2022/08/11 02:14:01;;;;;;;6.28;5.28;;;16.30;99.90;;;;;;5055896;28;20404;-78
2022/08/11 02:16:47;;;;;;;5.97;5.47;;;16.20;99.90;;;;;;5053222;28;20055;-78
2022/08/11 02:25:04;;;;;;;6.45;5.13;;;16.20;99.90;;;;;;5056162;28;20051;-78
2022/08/11 02:27:48;;;;;;;6.70;5.97;;;16.20;99.90;;;;;;5060812;28;20415;-79
2022/08/11 02:30:17;;;;;;;7.82;5.88;;;16.20;99.90;;;;;;5053923;28;20124;-78
2022/08/11 02:33:23;;;;;;;6.78;6.10;;;16.20;99.90;;;;;;5053790;28;20084;-79
2022/08/11 02:36:09;;;;;;;8.57;6.78;;;16.20;99.90;;;;;;5053391;28;20040;-79
2022/08/11 02:39:05;;;;;;;9.25;6.97;;;16.20;99.90;;;;;;5053817;28;20637;-80
2022/08/11 02:42:22;;;;;;;6.90;6.20;;;16.20;99.90;;;;;;5044380;28;20049;-79
2022/08/11 02:45:28;;;;;;;12.02;5.85;;;16.20;99.90;;;;;;5049087;28;20159;-79
2022/08/11 02:51:10;;;;;;;8.32;7.07;;;16.10;99.90;;;;;;5053479;28;20060;-79
2022/08/11 02:54:07;;;;;;;7.63;7.00;;;16.00;99.90;;;;;;5056333;28;20037;-78
2022/08/11 02:56:43;;;;;;;7.50;6.80;;;16.10;99.90;;;;;;5055894;28;20129;-78
2022/08/11 03:02:26;;;;;;;6.82;6.28;;;16.00;99.90;;;;;;5056494;28;20059;-79
2022/08/11 03:05:01;;;;;;;8.75;7.90;;;16.00;99.90;;;;;;5050165;28;20048;-78
2022/08/11 03:07:39;;;;;;;;;;;16.00;99.90;;;;;;5053630;28;20685;-79
2022/08/11 03:10:27;;;;;;;10.40;8.13;;;16.00;99.90;;;;;;5052609;28;20427;-78
2022/08/11 03:19:45;;;;;;;8.02;6.75;;;15.90;99.90;;;;;;5054947;28;20087;-78
2022/08/11 03:22:25;;;;;;;7.97;7.18;;;15.90;99.90;;;;;;5052237;28;20121;-79
2022/08/11 03:25:01;;;;;;;9.30;8.40;;;15.90;99.90;;;;;;5054550;28;20375;-78
2022/08/11 03:27:38;;;;;;;10.75;7.82;;;15.90;99.90;;;;;;5058766;28;20083;-78
2022/08/11 03:30:18;;;;;;;11.30;8.00;;;15.80;99.90;;;;;;5051080;28;20045;-79
2022/08/11 03:36:18;;;;;;;11.50;7.78;;;15.80;99.90;;;;;;5051405;28;20079;-79
2022/08/11 03:39:03;;;;;;;9.02;8.13;;;15.80;99.90;;;;;;5055760;28;20040;-78
2022/08/11 03:41:43;;;;;;;9.83;8.27;;;15.80;99.90;;;;;;5058230;28;20045;-79
2022/08/11 03:44:34;;;;;;;11.80;8.80;;;15.80;99.90;;;;;;5052102;28;20041;-79
2022/08/11 03:47:37;;;;;;;11.00;8.90;;;15.80;99.90;;;;;;5052017;28;20503;-78
2022/08/11 03:50:31;;;;;;;12.40;8.85;;;15.70;99.90;;;;;;5051427;28;20058;-79
2022/08/11 03:53:09;;;;;;;12.75;8.80;;;15.80;99.90;;;;;;5054584;28;20782;-78
2022/08/11 03:56:10;;;;;;;9.63;8.45;;;15.70;99.90;;;;;;5051771;28;20101;-79
2022/08/11 03:59:16;;;;;;;9.90;8.80;;;15.80;99.90;;;;;;5054052;28;20045;-78
2022/08/11 04:01:41;;;;;;;9.95;8.82;;;15.80;99.90;;;;;;5061421;28;20159;-79
2022/08/11 04:04:46;;;;;;;14.07;10.88;;;15.70;99.90;;;;;;5055154;28;20124;-79
2022/08/11 04:07:17;;;;;;;11.75;10.10;;;15.70;99.90;;;;;;5050310;28;20047;-79
2022/08/11 04:10:23;;;;;;;11.63;10.45;;;15.70;99.90;;;;;;5053103;28;20040;-78
2022/08/11 04:13:05;;;;;;;14.27;9.32;;;15.70;99.90;;;;;;5051230;28;20463;-78
2022/08/11 04:16:00;;;;;;;13.38;10.27;;;15.70;99.90;;;;;;5051851;28;20071;-80
2022/08/11 04:18:32;;;;;;;10.95;9.93;;;15.70;99.90;;;;;;5052554;28;20124;-79
2022/08/11 04:21:29;;;;;;;12.45;10.82;;;15.70;99.90;;;;;;5051185;28;20450;-79
2022/08/11 04:24:17;;;;;;;;;;;15.60;99.90;;;;;;5056151;28;20040;-78
2022/08/11 04:27:17;;;;;;;10.43;9.25;;;15.70;99.90;;;;;;5052523;28;19971;-79
2022/08/11 04:30:04;;;;;;;13.52;10.73;;;15.60;99.90;;;;;;5050054;28;20471;-79
2022/08/11 04:32:47;;;;;;;14.23;10.07;;;15.60;99.90;;;;;;5054339;28;20999;-78
2022/08/11 04:35:37;;;;;;;12.50;10.40;;;15.70;99.90;;;;;;5053022;28;20045;-79
2022/08/11 04:38:42;;;;;;;14.02;10.48;;;15.60;99.90;;;;;;5052770;28;20124;-78
2022/08/11 04:41:22;;;;;;;14.70;10.52;;;15.60;99.90;;;;;;5053083;28;20045;-79
2022/08/11 04:44:23;;;;;;;12.18;10.77;;;15.70;99.90;;;;;;5054707;28;20068;-78
2022/08/11 05:01:39;;;;;;;11.88;10.60;;;15.70;99.90;;;;;;5053315;28;20108;-78
2022/08/11 05:02:23;;;;;;;10.75;9.60;;;16.20;99.90;;;;;;5052674;28;20041;-79
2022/08/11 05:05:32;;;;;;;12.40;9.63;;;16.30;99.90;;;;;;5057376;28;20039;-79
2022/08/11 05:08:22;;;;;;;9.07;8.27;;;16.40;99.90;;;;;;5053707;28;20431;-78
2022/08/11 05:11:08;;;;;;;9.10;8.30;;;16.50;99.90;;;;;;5055613;28;20068;-78
2022/08/11 05:37:04;;;;;;;5.43;5.03;;;25.00;99.90;;;;;;5055883;28;20095;-79
2022/08/11 05:56:30;;;;;;;6.25;4.70;;;30.00;99.90;;;;;;5058849;28;20550;-79
2022/08/11 05:58:56;;;;;;;5.40;4.90;;;30.60;99.90;;;;;;5054976;28;20088;-80
2022/08/11 06:01:32;;;;;;;7.85;5.05;;;31.10;99.90;;;;;;5055838;28;20048;-81
2022/08/11 06:04:14;;;;;;;4.93;4.50;;;31.90;99.60;;;;;;5060559;28;20060;-79
2022/08/11 06:06:50;;;;;;;4.65;4.25;;;32.70;98.90;;;;;;5057218;28;20040;-79
2022/08/11 06:09:29;;;;;;;5.95;4.57;;;33.40;98.00;;;;;;5057327;28;20040;-80
2022/08/11 06:11:58;;;;;;;4.80;4.43;;;33.90;96.80;;;;;;5044082;28;20612;-80
2022/08/11 06:14:25;;;;;;;4.03;3.72;;;33.80;95.50;;;;;;5058782;28;20044;-81
2022/08/11 06:16:55;;;;;;;8.55;4.25;;;34.00;95.00;;;;;;5054095;28;20040;-81
2022/08/11 06:19:22;;;;;;;8.18;3.10;;;34.10;94.50;;;;;;5054661;28;20102;-81
2022/08/11 06:21:50;;;;;;;5.47;4.05;;;34.00;94.00;;;;;;5057311;28;20051;-82
2022/08/11 06:24:16;;;;;;;4.47;3.72;;;34.00;92.60;;;;;;5060948;28;20471;-82
2022/08/11 06:26:49;;;;;;;4.57;3.70;;;33.40;92.80;;;;;;5057988;28;20059;-82
2022/08/11 06:29:17;;;;;;;7.20;3.92;;;32.20;92.70;;;;;;5057997;28;20044;-81
2022/08/11 06:32:00;;;;;;;7.03;3.95;;;31.00;94.30;;;;;;5059333;28;20090;-80
2022/08/11 06:34:58;;;;;;;4.00;3.67;;;29.80;94.30;;;;;;5063482;28;20098;-79
2022/08/11 06:37:41;;;;;;;5.97;3.78;;;28.60;95.60;;;;;;5055664;28;20051;-80
2022/08/11 06:40:11;;;;;;;3.75;3.22;;;28.00;96.80;;;;;;5054296;28;20586;-81
2022/08/11 06:42:46;;;;;;;3.35;3.08;;;27.80;97.50;;;;;;5072549;28;20041;-80
2022/08/11 06:45:25;;;;;;;5.95;3.33;;;27.60;97.20;;;;;;5046474;28;20049;-79
2022/08/11 06:47:52;;;;;;;12.00;2.92;;;27.60;97.40;;;;;;5061844;28;20048;-81
2022/08/11 06:53:08;;;;;;;3.20;2.90;;;27.40;97.90;;;;;;5051517;28;20064;-76
2022/08/11 07:01:12;;;;;;;3.47;2.35;;;27.20;98.30;;;;;;5057862;28;20051;-80
2022/08/11 07:03:43;;;;;;;5.97;2.33;;;27.10;97.80;;;;;;5053007;28;20093;-80
2022/08/11 07:06:37;;;;;;;3.00;2.00;;;27.10;97.90;;;;;;5056143;28;20033;-80
2022/08/11 07:15:41;;;;;;;6.25;1.35;;;27.30;97.40;;;;;;5053234;28;20051;-82
2022/08/11 07:29:51;;;;;;;1.63;0.90;;;27.50;96.70;;;;;;5051709;28;20514;-80
2022/08/11 07:32:35;;;;;;;5.70;1.23;;;27.50;96.90;;;;;;5052393;28;20049;-83
2022/08/11 07:35:14;;;;;;;6.53;1.13;;;27.70;96.50;;;;;;5057035;28;20040;-82
2022/08/11 07:37:44;;;;;;;5.22;0.70;;;27.70;96.40;;;;;;5050795;28;20125;-81
2022/08/11 07:40:10;;;;;;;1.35;0.93;;;27.90;96.40;;;;;;5051247;28;20719;-80
2022/08/11 07:42:38;;;;;;;4.22;1.17;;;28.00;96.10;;;;;;5057973;28;20068;-80
2022/08/11 07:53:32;;;;;;;2.17;0.77;;;28.30;95.20;;;;;;5060129;28;20483;-79
2022/08/11 07:56:00;;;;;;;5.05;0.90;;;28.40;94.00;;;;;;5056861;28;20045;-82
2022/08/11 08:17:56;;;;;;;4.22;0.50;;;29.00;92.50;;;;;;5058500;28;20114;-79
2022/08/11 08:20:26;;;;;;;4.07;0.63;;;29.10;91.90;;;;;;5050933;28;20096;-79
2022/08/11 08:22:56;;;;;;;3.40;0.55;;;29.30;92.20;;;;;;5056083;28;20458;-81
2022/08/11 08:25:37;;;;;;;2.58;0.45;;;29.50;91.30;;;;;;5060957;28;20135;-80
2022/08/11 08:28:09;;;;;;;6.25;0.60;;;29.60;90.40;;;;;;5041104;28;20117;-80
2022/08/11 08:30:51;;;;;;;2.10;0.65;;;29.60;89.90;;;;;;5054877;28;20037;-85
2022/08/11 08:33:26;;;;;;;4.60;0.50;;;29.30;90.20;;;;;;5052249;28;20798;-82
2022/08/11 08:36:10;;;;;;;8.00;1.35;;;29.50;91.00;;;;;;5052442;28;20045;-79
2022/08/11 08:38:42;;;;;;;1.55;0.70;;;29.60;90.20;;;;;;5054512;28;20495;-80
2022/08/11 08:41:10;;;;;;;3.83;0.50;;;29.60;89.50;;;;;;5052857;28;20040;-80
2022/08/11 08:43:37;;;;;;;4.70;0.93;;;29.90;90.00;;;;;;5052896;28;20414;-79
2022/08/11 08:46:13;;;;;;;1.73;0.52;;;29.90;90.20;;;;;;5051285;28;20044;-82
2022/08/11 08:48:46;;;;;;;5.60;0.70;;;30.00;88.90;;;;;;5054996;28;20102;-83
2022/08/11 08:54:01;;;;;;;;;;;30.20;86.50;;;;;;5060507;28;20047;-79
2022/08/11 08:56:28;;;;;;;1.73;0.75;;;30.20;87.10;;;;;;5059236;28;20504;-82
2022/08/11 08:58:56;;;;;;;3.80;0.68;;;30.00;86.40;;;;;;5049413;28;20048;-82
2022/08/11 09:01:24;;;;;;;1.15;0.50;;;29.90;86.10;;;;;;5052323;28;20505;-80
2022/08/11 09:03:51;;;;;;;5.75;0.65;;;30.00;86.70;;;;;;5050620;28;20040;-79
2022/08/11 09:06:17;;;;;;;5.22;0.60;;;30.00;87.30;;;;;;5050145;28;20415;-80
2022/08/11 09:08:44;;;;;;;4.47;1.08;;;30.20;86.80;;;;;;5047955;28;20387;-80
2022/08/11 09:13:57;;;;;;;5.28;1.23;;;30.20;85.30;;;;;;5052942;28;20052;-81
2022/08/11 09:16:37;;;;;;;3.15;1.00;;;30.20;84.60;;;;;;5055485;28;20053;-82
2022/08/11 09:19:04;;;;;;;5.30;1.05;;;30.20;83.00;;;;;;5048826;28;20087;-83
2022/08/11 09:21:31;;;;;;;1.20;0.80;;;30.30;83.40;;;;;;5054550;28;20044;-84
2022/08/11 09:26:58;;;;;;;4.15;1.23;;;30.40;83.50;;;;;;5053717;28;20125;-84
2022/08/11 09:29:27;;;;;;;1.80;1.05;;;30.50;82.60;;;;;;5055318;28;20048;-82
2022/08/11 09:31:54;;;;;;;2.80;0.80;;;30.40;80.70;;;;;;5051771;28;20041;-84
2022/08/11 09:34:20;;;;;;;5.57;0.95;;;30.30;80.50;;;;;;5052710;28;20102;-82
2022/08/11 09:42:20;;;;;;;3.25;1.02;;;30.20;80.10;;;;;;5053732;28;20426;-79
2022/08/11 09:44:47;;;;;;;4.82;0.90;;;30.30;80.00;;;;;;5034569;28;20552;-80
2022/08/11 09:47:24;;;;;;;4.78;1.17;;;30.20;79.70;;;;;;5054430;28;20045;-81
2022/08/11 09:49:53;;;;;;;2.13;1.15;;;30.20;78.50;;;;;;5052493;28;20064;-82
2022/08/11 09:52:21;;;;;;;4.00;1.00;;;30.00;76.30;;;;;;5058563;28;20044;-81
2022/08/11 09:54:48;;;;;;;5.25;0.80;;;30.20;79.30;;;;;;5052665;28;20041;-79
2022/08/11 10:00:01;;;;;;;6.43;0.73;;;30.20;79.20;;;;;;5051374;28;20091;-79
2022/08/11 10:02:29;;;;;;;1.83;0.60;;;30.50;76.90;;;;;;5052882;28;20072;-79
2022/08/11 10:07:00;;;;;;;5.32;0.98;;;30.50;76.50;;;;;;5057183;28;20088;-81
2022/08/11 10:07:49;;;;;;;6.25;1.65;;;30.50;76.50;;;;;;5054565;28;20048;-79
2022/08/11 10:10:21;;;;;;;1.08;0.80;;;30.40;75.50;;;;;;5055769;28;20082;-83
2022/08/11 10:13:15;;;;;;;3.75;0.80;;;30.40;76.40;;;;;;5054055;28;20094;-79
2022/08/11 10:15:45;;;;;;;4.18;0.90;;;30.40;77.40;;;;;;5057326;28;20057;-82
2022/08/11 10:21:08;;;;;;;5.70;1.20;;;30.20;78.10;;;;;;5049927;28;20335;-78
2022/08/11 10:34:44;;;;;;;1.15;0.70;;;30.30;77.00;;;;;;5057462;28;20045;-82
2022/08/11 10:37:10;;;;;;;1.35;0.82;;;30.20;77.50;;;;;;5059564;28;20040;-80
2022/08/11 10:39:40;;;;;;;4.97;0.93;;;30.20;76.80;;;;;;5057018;28;20093;-81
2022/08/11 10:44:58;;;;;;;2.22;0.82;;;30.70;77.80;;;;;;5054242;28;20049;-79
2022/08/11 10:47:33;;;;;;;1.92;0.70;;;30.70;77.40;;;;;;5045206;28;20127;-79
2022/08/11 10:58:47;;;;;;;3.13;0.70;;;30.60;76.40;;;;;;5057454;28;20094;-81
2022/08/11 11:01:22;;;;;;;2.65;0.80;;;30.50;75.60;;;;;;5057419;28;20049;-80
2022/08/11 11:03:57;;;;;;;2.45;0.88;;;30.40;76.50;;;;;;5061008;28;20040;-80
2022/08/11 11:06:28;;;;;;;1.00;0.85;;;30.40;76.90;;;;;;5049961;28;20064;-80
2022/08/11 11:09:18;;;;;;;2.70;0.90;;;30.40;75.10;;;;;;5060381;28;20091;-81
2022/08/11 11:18:00;;;;;;;2.97;0.80;;;30.40;77.70;;;;;;5058168;28;20048;-81
2022/08/11 11:20:32;;;;;;;4.57;0.90;;;30.40;76.30;;;;;;5056086;28;20048;-80
2022/08/11 11:23:07;;;;;;;2.60;0.70;;;30.40;74.00;;;;;;5044535;28;20043;-81
2022/08/11 11:26:05;;;;;;;3.28;1.40;;;30.70;74.00;;;;;;5059562;28;20436;-80
2022/08/11 11:29:19;;;;;;;1.20;0.63;;;30.60;73.70;;;;;;5057545;28;20059;-81
2022/08/11 11:32:22;;;;;;;4.40;0.77;;;30.50;74.50;;;;;;5045189;28;20078;-79
2022/08/11 11:35:00;;;;;;;4.40;0.80;;;30.30;74.60;;;;;;5058043;28;20044;-78
2022/08/11 11:37:28;;;;;;;2.78;0.55;;;30.50;74.50;;;;;;5056439;28;20036;-81
2022/08/11 11:39:56;;;;;;;3.88;0.60;;;30.70;74.60;;;;;;5060606;28;20059;-79
2022/08/11 11:42:25;;;;;;;2.05;0.88;;;30.70;76.40;;;;;;5058249;28;20102;-80
2022/08/11 11:44:51;;;;;;;1.80;0.70;;;30.60;74.00;;;;;;5067495;28;20040;-79
2022/08/11 11:47:18;;;;;;;3.20;0.70;;;30.60;75.30;;;;;;5045125;28;20040;-80
2022/08/11 11:49:47;;;;;;;2.28;0.77;;;30.50;73.50;;;;;;5054430;28;20399;-80
2022/08/11 11:52:18;;;;;;;1.70;0.40;;;30.50;74.60;;;;;;5061396;28;20037;-80
2022/08/11 11:54:50;;;;;;;3.03;0.60;;;30.80;75.20;;;;;;5064833;28;20036;-83
2022/08/11 12:06:30;;;;;;;4.10;0.50;;;31.00;74.20;;;;;;5064486;28;20109;-81
2022/08/11 12:08:57;;;;;;;3.58;0.68;;;30.90;71.60;;;;;;5039227;28;20048;-80
2022/08/11 12:14:11;;;;;;;2.22;0.93;;;30.90;73.70;;;;;;5062281;28;20052;-81
2022/08/11 12:16:39;;;;;;;9.90;0.90;;;30.80;74.10;;;;;;5059952;28;20049;-80
2022/08/11 12:19:11;;;;;;;2.22;0.60;;;30.90;73.50;;;;;;5059565;28;20045;-80
2022/08/11 12:27:19;;;;;;;3.30;1.05;;;30.90;75.20;;;;;;5059942;28;20567;-80
2022/08/11 12:27:20;;;;;;;2.00;0.50;;;30.80;70.90;;;;;;5058366;28;20597;-81
2022/08/11 12:30:04;;;;;;;5.10;0.55;;;30.90;69.90;;;;;;5057053;28;20044;-80
2022/08/11 12:32:31;;;;;;;5.80;0.90;;;30.90;70.80;;;;;;5059009;28;20040;-80
2022/08/11 12:34:57;;;;;;;4.50;0.57;;;30.90;71.40;;;;;;5058140;28;20085;-80
2022/08/11 12:37:38;;;;;;;2.72;0.60;;;31.10;73.00;;;;;;5056299;28;20045;-81
2022/08/11 12:45:47;;;;;;;1.55;0.60;;;31.00;72.30;;;;;;5059264;28;20053;-80
2022/08/11 12:53:59;;;;;;;2.13;0.50;;;31.00;71.30;;;;;;5060639;28;20564;-80
2022/08/11 13:04:58;;;;;;;3.00;0.80;;;30.70;68.60;;;;;;5060515;28;20140;-82
2022/08/11 13:07:26;;;;;;;8.55;0.90;;;30.60;67.00;;;;;;5058834;28;20044;-81
2022/08/11 13:09:53;;;;;;;4.95;0.70;;;30.60;67.90;;;;;;5060657;28;20045;-81
2022/08/11 13:15:06;;;;;;;1.55;0.82;;;30.60;70.00;;;;;;5065531;28;20067;-81
2022/08/11 13:17:33;;;;;;;3.15;1.20;;;30.70;70.50;;;;;;5064392;28;20044;-81
2022/08/11 13:20:01;;;;;;;2.45;0.70;;;30.70;69.40;;;;;;5066396;28;20821;-80
2022/08/11 13:22:28;;;;;;;5.45;0.88;;;30.60;69.80;;;;;;5066770;28;20082;-81
2022/08/11 13:24:55;;;;;;;1.45;0.60;;;30.60;69.80;;;;;;5061347;28;20146;-80
2022/08/11 13:27:22;;;;;;;0.80;0.50;;;30.60;69.00;;;;;;5063688;28;20041;-82
2022/08/11 13:29:48;;;;;;;4.75;0.43;;;30.50;69.40;;;;;;5065959;28;20048;-80
2022/08/11 13:32:15;;;;;;;2.03;0.75;;;30.60;70.50;;;;;;5065369;28;20045;-80
2022/08/11 13:34:42;;;;;;;1.42;0.63;;;30.60;69.80;;;;;;5064555;28;20037;-81
2022/08/11 13:37:11;;;;;;;1.00;0.45;;;30.60;70.60;;;;;;5065826;28;20040;-81
2022/08/11 13:39:45;;;;;;;4.60;0.57;;;30.50;70.40;;;;;;5062492;28;20036;-81
2022/08/11 13:42:14;;;;;;;4.53;0.77;;;30.60;71.00;;;;;;5066269;28;20051;-80
2022/08/11 13:44:41;;;;;;;5.60;0.90;;;30.60;70.10;;;;;;5062336;28;20071;-82
2022/08/11 13:47:11;;;;;;;4.05;0.55;;;30.80;71.40;;;;;;5057535;28;20136;-80
2022/08/11 13:49:39;;;;;;;2.63;1.00;;;30.70;71.20;;;;;;5064020;28;20037;-80
2022/08/11 13:52:06;;;;;;;2.53;0.90;;;30.80;70.60;;;;;;5046452;28;20172;-80
2022/08/11 13:54:37;;;;;;;2.53;0.95;;;30.60;69.40;;;;;;5066861;28;20163;-80
2022/08/11 13:57:10;;;;;;;4.13;0.88;;;30.80;70.40;;;;;;5066002;28;20044;-80
2022/08/11 13:59:37;;;;;;;2.72;0.70;;;30.80;69.70;;;;;;5062457;28;20550;-81
2022/08/11 14:02:05;;;;;;;4.75;0.70;;;30.80;69.80;;;;;;5060988;28;20612;-80
2022/08/11 14:04:54;;;;;;;3.15;0.60;;;30.80;70.30;;;;;;5062220;28;20510;-80
2022/08/11 14:07:23;;;;;;;6.57;0.65;;;30.80;70.50;;;;;;5061789;28;20075;-81
2022/08/11 14:09:56;;;;;;;3.05;0.40;;;30.80;70.30;;;;;;5064015;28;20419;-80
2022/08/11 14:15:26;;;;;;;4.22;0.57;;;30.70;69.80;;;;;;5063218;28;20044;-81
2022/08/11 14:18:00;;;;;;;3.33;0.85;;;30.70;69.30;;;;;;5060796;28;20072;-80
2022/08/11 14:22:05;;;;;;;2.43;0.63;;;30.80;68.50;;;;;;5047487;28;20041;-81
2022/08/11 14:23:16;;;;;;;4.60;0.45;;;30.70;68.20;;;;;;5062445;28;20045;-80
2022/08/11 14:26:22;;;;;;;1.13;0.60;;;30.60;67.90;;;;;;5069168;28;20041;-80
2022/08/11 14:28:32;;;;;;;0.93;0.63;;;30.70;69.00;;;;;;5058750;28;20063;-80
2022/08/11 14:30:58;;;;;;;4.95;0.60;;;30.60;67.90;;;;;;5065958;28;20044;-80
2022/08/11 14:33:24;;;;;;;1.92;0.50;;;30.60;66.60;;;;;;5064108;28;20059;-80
2022/08/11 14:35:50;;;;;;;2.20;0.70;;;30.50;66.90;;;;;;5061433;28;20045;-80
2022/08/11 14:38:17;;;;;;;2.05;0.68;;;30.50;67.70;;;;;;5061283;28;20044;-81
2022/08/11 14:49:06;;;;;;;7.10;0.67;;;30.40;68.00;;;;;;5062498;28;20041;-80
2022/08/11 14:51:33;;;;;;;7.18;0.73;;;30.30;68.50;;;;;;5064578;28;20351;-80
2022/08/11 14:56:43;;;;;;;3.00;0.98;;;30.30;68.50;;;;;;5065384;28;20044;-80
2022/08/11 14:59:11;;;;;;;4.05;0.90;;;30.20;68.70;;;;;;5061443;28;20113;-80
2022/08/11 15:04:22;;;;;;;1.40;0.70;;;30.20;68.00;;;;;;5060942;28;20141;-80
2022/08/11 15:06:49;;;;;;;10.57;0.80;;;30.30;67.80;;;;;;5061011;28;20645;-84
2022/08/11 15:09:15;;;;;;;3.03;0.63;;;30.20;68.00;;;;;;5069398;28;20045;-82
2022/08/11 15:17:12;;;;;;;0.63;0.40;;;30.20;68.30;;;;;;5057171;28;20063;-82
2022/08/11 15:24:18;;;;;;;1.67;0.65;;;30.10;68.70;;;;;;5060736;28;20041;-82
2022/08/11 15:25:21;;;;;;;6.67;0.50;;;30.10;68.60;;;;;;5072230;28;20056;-83
2022/08/11 15:39:03;;;;;;;3.08;0.80;;;29.80;69.40;;;;;;5066515;28;20059;-82
2022/08/11 15:47:13;;;;;;;3.53;0.60;;;29.70;69.90;;;;;;5061516;28;20093;-82
2022/08/11 15:49:43;;;;;;;9.02;0.95;;;29.70;69.50;;;;;;5060014;28;20041;-82
2022/08/11 15:52:19;;;;;;;1.98;0.82;;;29.80;70.30;;;;;;5061535;28;20126;-81
2022/08/11 15:54:47;;;;;;;3.58;0.63;;;29.60;69.80;;;;;;5061567;28;20089;-82
2022/08/11 16:05:23;;;;;;;2.97;0.67;;;29.40;71.00;;;;;;5063111;28;20095;-81
2022/08/11 16:07:50;;;;;;;4.70;0.60;;;29.30;71.30;;;;;;5064038;28;20361;-81
2022/08/11 16:10:23;;;;;;;7.03;1.25;;;29.20;70.80;;;;;;5060596;28;20044;-84
2022/08/11 16:18:39;;;;;;;6.40;1.15;;;29.00;72.90;;;;;;5061298;28;20063;-81
2022/08/11 16:21:09;;;;;;;1.67;0.70;;;29.00;73.30;;;;;;5042996;28;20047;-80
2022/08/11 16:23:38;;;;;;;7.28;0.80;;;28.90;73.80;;;;;;5061101;28;20079;-81
2022/08/11 16:26:05;;;;;;;1.23;0.65;;;28.80;73.70;;;;;;5055645;28;20044;-81
2022/08/11 16:28:34;;;;;;;3.05;0.50;;;28.70;73.50;;;;;;5058497;28;20056;-82
2022/08/11 16:31:01;;;;;;;3.60;0.68;;;28.70;74.10;;;;;;5059488;28;20094;-81
2022/08/11 16:33:29;;;;;;;1.88;0.70;;;28.60;74.60;;;;;;5060753;28;20043;-80
2022/08/11 16:38:41;;;;;;;4.10;0.90;;;28.50;75.50;;;;;;5061904;28;20115;-83
2022/08/11 16:46:57;;;;;;;4.75;0.80;;;28.50;75.60;;;;;;5060192;28;20063;-82
2022/08/11 16:47:05;;;;;;;1.33;0.70;;;28.30;76.20;;;;;;5065820;28;20059;-83
2022/08/11 16:49:34;;;;;;;3.22;0.85;;;28.20;77.20;;;;;;5072209;28;20135;-83
2022/08/11 16:52:17;;;;;;;2.88;0.70;;;28.10;77.50;;;;;;5060885;28;20047;-84
2022/08/11 16:54:56;;;;;;;4.82;0.90;;;28.00;77.80;;;;;;5073060;28;20122;-84
2022/08/11 17:00:51;;;;;;;;;;;;;;;;;;;;;
2022/08/11 17:14:54;;;;;;;3.00;0.77;;;27.60;79.50;;;;;;5062136;28;20053;-85
2022/08/11 17:17:36;;;;;;;2.63;0.55;;;27.50;80.40;;;;;;5062685;28;20056;-82
2022/08/11 17:20:13;;;;;;;12.18;1.83;;;27.50;79.90;;;;;;5062486;28;20060;-82
2022/08/11 17:26:27;;;;;;;5.43;0.90;;;27.20;80.70;;;;;;5070888;28;20052;-83
2022/08/11 17:29:13;;;;;;;5.10;0.90;;;27.40;82.00;;;;;;5057812;28;20056;-84
2022/08/11 17:37:10;;;;;;;12.43;1.23;;;27.20;82.80;;;;;;5067994;28;20012;-81
2022/08/11 17:39:37;;;;;;;23.55;2.17;;;27.10;82.90;;;;;;5047754;28;20032;-83
2022/08/11 17:50:19;;;;;;;2.80;0.82;;;27.00;83.70;;;;;;5060033;28;20060;-81
2022/08/11 18:01:05;;;;;;;10.98;1.40;;;26.70;84.90;;;;;;5066197;28;20040;-80
2022/08/11 18:03:38;;;;;;;6.95;0.82;;;26.60;85.20;;;;;;5066071;28;20037;-79
2022/08/11 18:06:05;;;;;;;12.13;1.10;;;26.60;85.60;;;;;;5060357;28;20048;-81
